Time;durP1;ratioP1;P1;durP2;ratioP2;P2;SDS_P1;SDS_P2;PMS_P1;PMS_P2;Temp;Humidity;BMP_temperature;BMP_pressure;BME280_temperature;BME280_humidity;BME280_pressure;Samples;Min_cycle;Max_cycle;Signal;HPM_P1;HPM_P2
2021/12/01 00:01:01;;;;;;;1.52;0.47;;;;;;;3.90;100.00;98287.59;5015656;28;20037;-69
2021/12/01 00:03:26;;;;;;;1.27;0.50;;;;;;;3.86;100.00;98282.75;5035622;28;20021;-70
2021/12/01 00:05:52;;;;;;;2.10;0.40;;;;;;;3.95;100.00;98271.81;5035640;28;20390;-72
2021/12/01 00:08:17;;;;;;;0.60;0.60;;;;;;;3.92;100.00;98272.16;5035283;28;20109;-69
2021/12/01 00:10:44;;;;;;;1.20;0.60;;;;;;;4.00;100.00;98279.31;5034003;28;20455;-69
2021/12/01 00:13:13;;;;;;;2.00;0.52;;;;;;;3.87;100.00;98273.69;5035582;28;20025;-69
2021/12/01 00:15:41;;;;;;;0.70;0.60;;;;;;;3.74;100.00;98247.50;5035215;28;20104;-69
2021/12/01 00:18:06;;;;;;;0.75;0.60;;;;;;;3.93;100.00;98256.97;5035412;28;20033;-71
2021/12/01 00:20:32;;;;;;;0.90;0.50;;;;;;;3.86;100.00;98253.31;5033845;28;20026;-68
2021/12/01 00:22:59;;;;;;;0.90;0.60;;;;;;;3.76;100.00;98233.94;5035536;28;20064;-68
2021/12/01 00:25:25;;;;;;;0.68;0.60;;;;;;;3.67;100.00;98230.47;5035373;28;20056;-69
2021/12/01 00:27:52;;;;;;;0.93;0.50;;;;;;;3.71;100.00;98226.44;5035372;28;20025;-68
2021/12/01 00:30:18;;;;;;;0.55;0.40;;;;;;;3.82;100.00;98255.47;5034853;28;20100;-68
2021/12/01 00:32:44;;;;;;;0.93;0.50;;;;;;;3.85;100.00;98243.59;5035187;28;20029;-67
2021/12/01 00:35:10;;;;;;;0.70;0.38;;;;;;;3.80;100.00;98260.19;5035687;28;20036;-68
2021/12/01 00:37:36;;;;;;;0.90;0.52;;;;;;;3.79;100.00;98255.00;5035376;28;20021;-69
2021/12/01 00:40:04;;;;;;;1.42;0.70;;;;;;;3.81;100.00;98243.13;5035219;28;20470;-69
2021/12/01 00:42:29;;;;;;;0.73;0.50;;;;;;;3.85;100.00;98251.63;5028960;28;20022;-69
2021/12/01 00:44:57;;;;;;;0.57;0.45;;;;;;;3.67;100.00;98222.47;5035235;28;20044;-71
2021/12/01 00:47:31;;;;;;;0.75;0.70;;;;;;;3.69;100.00;98231.97;5033859;28;20867;-71
2021/12/01 00:49:56;;;;;;;1.02;0.60;;;;;;;3.54;100.00;98190.91;5034779;28;20021;-69
2021/12/01 00:52:21;;;;;;;1.20;0.75;;;;;;;3.65;100.00;98233.31;5034605;28;20041;-69
2021/12/01 00:54:47;;;;;;;1.38;1.10;;;;;;;3.63;100.00;98223.81;5034798;28;20489;-69
2021/12/01 00:57:12;;;;;;;1.23;0.73;;;;;;;3.57;100.00;98203.94;5034676;28;20029;-68
2021/12/01 00:59:37;;;;;;;1.13;0.63;;;;;;;3.49;100.00;98198.63;5034621;28;20032;-70
2021/12/01 01:02:03;;;;;;;1.45;0.90;;;;;;;3.50;100.00;98198.44;5015235;28;20491;-69
2021/12/01 01:04:28;;;;;;;0.80;0.75;;;;;;;3.58;100.00;98200.25;5020705;28;20037;-69
2021/12/01 01:06:54;;;;;;;0.88;0.50;;;;;;;3.53;100.00;98202.59;5031708;28;20479;-69
2021/12/01 01:09:19;;;;;;;1.17;0.80;;;;;;;3.48;100.00;98199.63;5034157;28;20029;-69
2021/12/01 01:17:19;;;;;;;0.88;0.70;;;;;;;3.43;100.00;98207.31;5034530;28;20118;-68
2021/12/01 01:19:44;;;;;;;2.10;1.02;;;;;;;3.24;100.00;98177.31;5034388;28;20029;-68
2021/12/01 01:22:10;;;;;;;2.83;1.40;;;;;;;3.44;100.00;98199.13;5034141;28;20071;-71
2021/12/01 01:24:36;;;;;;;1.45;0.90;;;;;;;3.38;100.00;98196.31;5034038;28;20028;-69
2021/12/01 01:27:02;;;;;;;2.15;1.20;;;;;;;3.45;100.00;98194.63;5034113;28;20075;-69
2021/12/01 01:29:27;;;;;;;2.00;0.98;;;;;;;3.32;100.00;98176.44;5033912;28;20486;-71
2021/12/01 01:31:56;;;;;;;3.40;1.00;;;;;;;3.39;100.00;98189.97;5034182;28;20021;-70
2021/12/01 01:34:24;;;;;;;3.15;0.70;;;;;;;3.37;100.00;98183.94;5034110;28;20090;-69
2021/12/01 01:36:49;;;;;;;1.65;1.00;;;;;;;3.19;100.00;98155.59;5033956;28;20461;-68
2021/12/01 01:39:15;;;;;;;2.38;0.80;;;;;;;3.36;100.00;98176.94;5030390;28;20069;-69
2021/12/01 01:41:40;;;;;;;1.48;1.10;;;;;;;3.36;100.00;98183.13;5033498;28;20120;-70
2021/12/01 01:44:06;;;;;;;1.70;1.15;;;;;;;3.34;100.00;98192.31;5033883;28;20450;-68
2021/12/01 01:46:33;;;;;;;1.70;1.13;;;;;;;3.33;100.00;98175.44;5033916;28;20029;-69
2021/12/01 01:49:06;;;;;;;1.35;0.90;;;;;;;3.35;100.00;98177.94;5033479;28;20113;-70
2021/12/01 01:51:32;;;;;;;3.25;1.17;;;;;;;3.35;100.00;98173.41;5033518;28;20037;-70
2021/12/01 01:53:58;;;;;;;1.60;0.90;;;;;;;3.37;100.00;98178.59;5020706;28;20131;-69
2021/12/01 01:56:25;;;;;;;2.33;0.98;;;;;;;3.37;100.00;98165.25;5014075;28;20030;-68
2021/12/01 01:58:51;;;;;;;1.77;1.20;;;;;;;3.36;100.00;98163.59;5025046;28;20052;-69
2021/12/01 02:01:40;;;;;;;2.85;2.13;;;;;;;3.39;100.00;98150.69;5033474;28;20036;-68
2021/12/01 02:04:06;;;;;;;4.70;1.13;;;;;;;3.43;100.00;98159.19;5033532;28;20032;-68
2021/12/01 02:06:32;;;;;;;1.42;1.00;;;;;;;3.42;100.00;98154.84;5033389;28;20391;-69
2021/12/01 02:08:58;;;;;;;1.23;0.80;;;;;;;3.33;100.00;98142.50;5023934;28;20082;-72
2021/12/01 02:11:26;;;;;;;1.83;0.75;;;;;;;3.47;100.00;98149.81;5024595;28;20026;-69
2021/12/01 02:13:52;;;;;;;1.05;0.60;;;;;;;3.48;100.00;98151.47;5033303;28;20021;-69
2021/12/01 02:16:20;;;;;;;1.65;0.80;;;;;;;3.40;100.00;98132.81;5033021;28;20044;-72
2021/12/01 02:18:45;;;;;;;1.13;0.60;;;;;;;3.52;100.00;98142.09;5027336;28;20032;-71
2021/12/01 02:21:17;;;;;;;1.42;0.60;;;;;;;3.56;100.00;98126.53;5021016;28;20033;-69
2021/12/01 02:23:48;;;;;;;1.48;0.65;;;;;;;3.60;100.00;98141.25;5032090;28;20021;-68
2021/12/01 02:26:16;;;;;;;0.55;0.50;;;;;;;3.63;100.00;98124.84;5033189;28;20026;-71
2021/12/01 02:28:45;;;;;;;0.50;0.50;;;;;;;3.59;100.00;98115.47;5032506;28;20025;-70
2021/12/01 02:31:11;;;;;;;0.68;0.60;;;;;;;3.61;100.00;98116.97;5032580;28;20056;-68
2021/12/01 02:33:37;;;;;;;1.38;0.73;;;;;;;3.63;100.00;98108.78;5032898;28;20056;-68
2021/12/01 02:36:03;;;;;;;1.38;0.60;;;;;;;3.64;100.00;98119.31;5032777;28;20377;-69
2021/12/01 02:38:29;;;;;;;1.58;1.20;;;;;;;3.54;100.00;98085.75;5031561;28;20148;-69
2021/12/01 02:40:54;;;;;;;1.52;0.98;;;;;;;3.67;100.00;98100.25;5021355;28;20101;-69
2021/12/01 02:43:24;;;;;;;0.60;0.60;;;;;;;3.66;100.00;98101.22;5012978;28;20026;-68
2021/12/01 02:45:53;;;;;;;1.00;0.68;;;;;;;3.72;100.00;98089.84;5013063;28;20430;-68
2021/12/01 02:48:20;;;;;;;0.90;0.60;;;;;;;3.59;100.00;98065.53;5020212;28;20026;-69
2021/12/01 02:50:46;;;;;;;1.75;0.75;;;;;;;3.70;100.00;98075.81;5027095;28;20029;-69
2021/12/01 02:53:11;;;;;;;1.50;0.80;;;;;;;3.49;100.00;98046.19;5013003;28;20049;-68
2021/12/01 02:55:56;;;;;;;0.68;0.55;;;;;;;3.74;100.00;98074.41;5022120;28;20026;-69
2021/12/01 02:58:22;;;;;;;2.15;0.70;;;;;;;3.76;100.00;98068.06;5025872;28;20119;-68
2021/12/01 03:00:51;;;;;;;2.92;0.65;;;;;;;3.74;100.00;98047.66;5020424;28;20030;-68
2021/12/01 03:03:17;;;;;;;0.65;0.65;;;;;;;3.57;100.00;98021.25;5025799;28;20076;-68
2021/12/01 03:05:46;;;;;;;1.23;0.73;;;;;;;3.76;100.00;98044.00;5032473;28;20025;-68
2021/12/01 03:08:15;;;;;;;1.85;0.63;;;;;;;3.73;100.00;98038.00;5030755;28;20116;-68
2021/12/01 03:10:40;;;;;;;1.08;0.75;;;;;;;3.71;100.00;98033.81;5032087;28;20443;-68
2021/12/01 03:13:06;;;;;;;1.65;0.60;;;;;;;3.74;100.00;98036.97;5028455;28;20048;-68
2021/12/01 03:15:31;;;;;;;2.38;0.90;;;;;;;3.72;100.00;98020.28;5032212;28;20030;-69
2021/12/01 03:17:59;;;;;;;1.13;0.65;;;;;;;3.54;100.00;97989.47;5031833;28;20052;-68
2021/12/01 03:20:24;;;;;;;1.83;1.08;;;;;;;3.62;100.00;97992.94;5032110;28;20022;-68
2021/12/01 03:22:49;;;;;;;2.47;0.80;;;;;;;3.67;100.00;97998.59;5032282;28;20044;-69
2021/12/01 03:25:16;;;;;;;2.95;0.85;;;;;;;3.74;100.00;98015.56;5032015;28;20025;-71
2021/12/01 03:27:41;;;;;;;0.98;0.88;;;;;;;3.74;100.00;98007.53;5031407;28;20025;-71
2021/12/01 03:30:09;;;;;;;1.30;0.70;;;;;;;3.78;100.00;98013.38;5031178;28;20040;-68
2021/12/01 03:32:35;;;;;;;3.67;0.85;;;;;;;3.80;100.00;97999.81;5031884;28;20090;-68
2021/12/01 03:35:03;;;;;;;1.40;1.00;;;;;;;3.74;100.00;97999.50;5031993;28;20092;-68
2021/12/01 03:37:28;;;;;;;2.40;0.80;;;;;;;3.72;100.00;97988.19;5031972;28;20037;-68
2021/12/01 03:39:54;;;;;;;2.88;1.00;;;;;;;3.72;100.00;97990.84;5031450;28;20272;-69
2021/12/01 03:42:19;;;;;;;2.03;0.95;;;;;;;3.68;100.00;97988.72;5026868;28;20045;-68
2021/12/01 03:44:44;;;;;;;1.90;1.00;;;;;;;3.66;100.00;97990.72;5012214;28;20662;-68
2021/12/01 03:47:10;;;;;;;2.65;1.60;;;;;;;3.74;100.00;97988.81;5026069;28;20024;-69
2021/12/01 03:49:35;;;;;;;4.57;1.13;;;;;;;3.76;100.00;97982.47;5026543;28;20030;-68
2021/12/01 03:52:00;;;;;;;2.45;0.98;;;;;;;3.74;100.00;97975.44;5031559;28;20014;-69
2021/12/01 03:54:26;;;;;;;1.63;1.10;;;;;;;3.63;100.00;97946.44;5031887;28;20051;-68
2021/12/01 03:56:51;;;;;;;1.60;1.17;;;;;;;3.70;100.00;97947.41;5027778;28;20184;-68
2021/12/01 03:59:17;;;;;;;2.35;1.42;;;;;;;3.82;100.00;97957.66;5022261;28;20448;-68
2021/12/01 04:01:42;;;;;;;1.67;0.90;;;;;;;3.77;100.00;97952.00;5031218;28;20080;-70
2021/12/01 04:04:08;;;;;;;2.75;0.80;;;;;;;3.81;100.00;97943.44;5024783;28;20034;-68
2021/12/01 04:06:33;;;;;;;3.67;0.80;;;;;;;3.88;100.00;97948.91;5014942;28;20095;-69
2021/12/01 04:08:58;;;;;;;2.40;1.00;;;;;;;3.86;100.00;97932.22;5030323;28;20032;-70
2021/12/01 04:11:24;;;;;;;1.10;0.85;;;;;;;3.87;100.00;97939.22;5031466;28;20113;-69
2021/12/01 04:13:49;;;;;;;3.72;1.05;;;;;;;3.94;100.00;97934.81;5031773;28;20067;-69
2021/12/01 04:16:14;;;;;;;1.42;0.90;;;;;;;3.96;100.00;97927.44;5031545;28;20025;-73
2021/12/01 04:18:40;;;;;;;1.25;0.60;;;;;;;3.98;100.00;97922.69;5027356;28;20022;-69
2021/12/01 04:21:06;;;;;;;1.23;0.90;;;;;;;4.03;100.00;97911.47;5030888;28;20033;-72
2021/12/01 04:23:34;;;;;;;1.95;0.75;;;;;;;4.00;100.00;97904.63;5026502;28;20167;-72
2021/12/01 04:26:00;;;;;;;0.55;0.50;;;;;;;3.81;100.00;97878.41;5029732;28;20036;-71
2021/12/01 04:28:26;;;;;;;1.25;0.60;;;;;;;4.08;100.00;97917.91;5050198;23;20038;-73
2021/12/01 04:30:51;;;;;;;0.85;0.65;;;;;;;4.10;100.00;97912.38;5020147;28;20057;-72
2021/12/01 04:33:16;;;;;;;3.22;0.60;;;;;;;4.12;100.00;97918.41;5010832;28;20030;-70
2021/12/01 04:35:42;;;;;;;1.20;0.70;;;;;;;4.16;100.00;97925.84;5029963;28;20022;-71
2021/12/01 04:38:07;;;;;;;0.60;0.60;;;;;;;4.14;100.00;97887.75;5033678;28;20033;-71
2021/12/01 04:40:33;;;;;;;0.82;0.68;;;;;;;4.25;100.00;97894.50;5033523;28;20069;-74
2021/12/01 04:42:58;;;;;;;1.20;0.75;;;;;;;4.26;100.00;97884.59;5045932;28;20033;-75
2021/12/01 04:45:25;;;;;;;0.93;0.60;;;;;;;4.26;100.00;97877.41;5035180;28;20026;-77
2021/12/01 04:47:53;;;;;;;2.05;0.80;;;;;;;4.25;99.86;97867.72;5017077;28;20050;-75
2021/12/01 04:50:21;;;;;;;1.65;0.73;;;;;;;4.29;100.00;97873.50;5022429;28;20067;-74
2021/12/01 04:52:47;;;;;;;2.53;0.87;;;;;;;4.20;99.86;97837.16;5039590;28;20033;-74
2021/12/01 04:55:13;;;;;;;0.73;0.55;;;;;;;4.20;99.78;97843.34;5015343;28;20029;-78
2021/12/01 04:57:44;;;;;;;2.78;0.82;;;;;;;4.26;99.97;97842.59;5021910;28;20549;-76
2021/12/01 05:00:15;;;;;;;1.00;0.70;;;;;;;4.32;99.57;97835.66;4999121;28;20503;-75
2021/12/01 05:02:40;;;;;;;1.60;0.73;;;;;;;4.24;99.29;97817.84;5007593;28;20526;-76
2021/12/01 05:05:06;;;;;;;0.93;0.65;;;;;;;4.27;98.71;97811.28;5015214;28;20026;-78
2021/12/01 05:07:31;;;;;;;1.52;0.70;;;;;;;4.34;99.41;97823.72;5026189;28;20317;-76
2021/12/01 05:09:57;;;;;;;0.90;0.80;;;;;;;4.26;99.43;97797.06;5027810;28;20021;-74
2021/12/01 05:12:22;;;;;;;1.35;0.80;;;;;;;4.30;99.67;97818.97;5032356;28;20024;-70
2021/12/01 05:14:48;;;;;;;3.28;0.90;;;;;;;4.32;99.38;97819.59;5037424;28;20028;-75
2021/12/01 05:17:13;;;;;;;1.02;0.70;;;;;;;4.24;99.54;97799.09;5011509;28;20030;-73
2021/12/01 05:19:38;;;;;;;1.50;0.90;;;;;;;4.32;99.52;97817.75;5019384;28;20022;-78
2021/12/01 05:22:05;;;;;;;0.80;0.75;;;;;;;4.32;99.39;97803.53;5042684;28;20395;-73
2021/12/01 05:24:31;;;;;;;2.05;1.20;;;;;;;4.28;98.95;97788.88;5036057;28;20048;-78
2021/12/01 05:26:56;;;;;;;2.10;1.17;;;;;;;4.36;99.50;97810.16;5018584;28;20029;-72
2021/12/01 05:29:23;;;;;;;2.60;1.20;;;;;;;4.33;99.74;97797.16;5002091;28;20034;-76
2021/12/01 05:31:49;;;;;;;1.55;1.08;;;;;;;4.25;99.50;97781.22;5006466;28;20029;-75
2021/12/01 05:34:14;;;;;;;1.92;1.05;;;;;;;4.34;100.00;97793.47;5022849;28;20026;-73
2021/12/01 05:36:40;;;;;;;1.45;1.00;;;;;;;4.31;98.71;97781.28;5022861;28;20101;-76
2021/12/01 05:39:05;;;;;;;2.25;0.93;;;;;;;4.23;99.17;97745.75;5009988;28;20033;-72
2021/12/01 05:41:30;;;;;;;2.67;0.73;;;;;;;4.43;99.11;97778.09;5018515;28;20498;-74
2021/12/01 05:43:56;;;;;;;3.17;1.23;;;;;;;4.32;99.91;97752.66;5009655;28;20553;-78
2021/12/01 05:46:23;;;;;;;1.85;0.90;;;;;;;4.32;99.58;97756.19;5022281;28;20065;-79
2021/12/01 05:48:51;;;;;;;1.98;0.90;;;;;;;4.34;99.13;97745.25;5019383;28;20040;-76
2021/12/01 05:51:18;;;;;;;1.80;0.85;;;;;;;4.36;99.23;97748.59;5011897;28;20032;-73
2021/12/01 05:53:44;;;;;;;1.73;0.90;;;;;;;4.42;98.78;97739.78;5017328;28;20097;-73
2021/12/01 05:56:09;;;;;;;2.03;1.10;;;;;;;4.34;98.54;97732.69;5018220;28;20636;-73
2021/12/01 05:58:34;;;;;;;2.55;1.35;;;;;;;4.44;98.78;97744.97;5002823;28;20022;-76
2021/12/01 06:01:00;;;;;;;2.30;1.02;;;;;;;4.41;98.20;97724.75;5011494;28;20034;-75
2021/12/01 06:03:27;;;;;;;1.73;0.98;;;;;;;4.44;98.77;97728.88;5025523;28;20021;-78
2021/12/01 06:05:53;;;;;;;1.30;0.95;;;;;;;4.53;98.25;97731.25;5021044;28;20040;-74
2021/12/01 06:08:18;;;;;;;2.10;0.90;;;;;;;4.47;98.89;97712.44;5034072;28;20561;-79
2021/12/01 06:10:44;;;;;;;2.47;0.93;;;;;;;4.39;98.31;97708.84;5031646;28;20026;-75
2021/12/01 06:13:10;;;;;;;1.65;0.90;;;;;;;4.40;98.76;97707.00;5045022;28;20033;-76
2021/12/01 06:15:36;;;;;;;2.20;0.98;;;;;;;4.49;99.10;97713.06;5033559;28;20696;-78
2021/12/01 06:18:01;;;;;;;1.58;1.10;;;;;;;4.52;98.97;97721.53;5020713;28;20058;-77
2021/12/01 06:20:27;;;;;;;2.55;1.10;;;;;;;4.57;99.02;97718.31;5018486;28;20040;-79
2021/12/01 06:22:52;;;;;;;3.72;1.40;;;;;;;4.61;98.40;97709.69;5032398;28;20029;-78
2021/12/01 06:25:21;;;;;;;3.42;1.48;;;;;;;4.50;98.53;97688.75;5018569;28;20026;-79
2021/12/01 06:27:47;;;;;;;2.38;1.05;;;;;;;4.61;98.21;97682.91;5014222;28;20026;-77
2021/12/01 06:30:13;;;;;;;1.85;0.57;;;;;;;4.49;98.28;97668.38;4998650;28;20041;-77
2021/12/01 06:32:38;;;;;;;2.05;0.82;;;;;;;4.58;97.95;97666.38;5006577;28;20467;-75
2021/12/01 06:35:05;;;;;;;4.57;1.00;;;;;;;4.69;97.38;97673.06;5007499;28;20029;-77
2021/12/01 06:37:30;;;;;;;1.65;0.95;;;;;;;4.71;97.42;97666.47;5017567;28;20029;-79
2021/12/01 06:39:56;;;;;;;2.35;1.30;;;;;;;4.72;96.38;97664.66;5012651;28;20034;-75
2021/12/01 06:42:21;;;;;;;2.17;1.17;;;;;;;4.84;96.24;97671.13;5012197;28;20034;-74
2021/12/01 06:44:47;;;;;;;2.35;1.05;;;;;;;4.86;95.57;97666.41;5023387;28;20077;-78
2021/12/01 06:47:12;;;;;;;4.60;1.15;;;;;;;4.85;95.03;97651.34;5001210;28;20113;-77
2021/12/01 06:49:37;;;;;;;1.88;0.80;;;;;;;5.02;94.32;97671.44;5019171;28;20454;-73
2021/12/01 06:52:03;;;;;;;1.98;0.70;;;;;;;4.98;93.93;97654.13;5002774;28;20037;-75
2021/12/01 06:54:28;;;;;;;0.60;0.40;;;;;;;5.19;92.28;97641.69;5017488;28;20064;-76
2021/12/01 06:56:54;;;;;;;3.33;0.75;;;;;;;5.13;91.99;97621.81;5005931;28;20022;-73
2021/12/01 06:59:19;;;;;;;0.73;0.40;;;;;;;5.48;90.99;97651.31;5005446;28;20073;-73
2021/12/01 07:01:44;;;;;;;0.82;0.52;;;;;;;5.45;90.53;97639.13;5022866;28;20026;-71
2021/12/01 07:04:12;;;;;;;1.17;0.57;;;;;;;5.52;90.27;97643.69;5014215;28;20033;-73
2021/12/01 07:06:37;;;;;;;0.95;0.68;;;;;;;5.47;89.45;97614.78;4993722;28;20492;-75
2021/12/01 07:09:03;;;;;;;1.23;0.60;;;;;;;5.55;89.00;97625.31;4996152;28;20041;-73
2021/12/01 07:11:28;;;;;;;0.88;0.45;;;;;;;5.56;88.18;97610.09;5013419;28;20030;-71
2021/12/01 07:13:54;;;;;;;0.82;0.50;;;;;;;5.81;87.72;97629.97;5001069;28;20052;-71
2021/12/01 07:16:19;;;;;;;0.73;0.30;;;;;;;5.82;87.27;97620.91;5000672;28;20045;-70
2021/12/01 07:18:45;;;;;;;0.50;0.40;;;;;;;5.71;86.78;97611.56;5002488;28;20021;-72
2021/12/01 07:21:11;;;;;;;1.70;0.47;;;;;;;5.77;86.83;97593.84;5011910;28;20044;-73
2021/12/01 07:23:36;;;;;;;0.88;0.22;;;;;;;5.92;86.03;97605.22;5012350;28;20360;-75
2021/12/01 07:26:02;;;;;;;0.20;0.20;;;;;;;6.01;85.33;97603.22;5010092;28;20022;-73
2021/12/01 07:28:28;;;;;;;0.75;0.35;;;;;;;6.05;84.77;97598.25;5007441;28;20030;-75
2021/12/01 07:30:53;;;;;;;0.50;0.30;;;;;;;6.11;83.94;97581.34;5010666;28;20059;-76
2021/12/01 07:33:18;;;;;;;1.08;0.30;;;;;;;6.11;83.86;97584.84;5008559;28;20036;-75
2021/12/01 07:35:44;;;;;;;0.68;0.30;;;;;;;6.18;83.97;97571.41;5010828;28;20034;-76
2021/12/01 07:38:09;;;;;;;0.70;0.20;;;;;;;6.21;83.69;97571.03;5000381;28;20113;-76
2021/12/01 07:40:34;;;;;;;0.30;0.22;;;;;;;6.09;83.13;97557.38;5013555;28;20442;-74
2021/12/01 07:43:00;;;;;;;2.40;0.38;;;;;;;6.11;83.85;97554.47;5005634;28;20048;-73
2021/12/01 07:45:27;;;;;;;1.38;0.30;;;;;;;6.17;83.62;97544.78;5035384;28;20026;-73
2021/12/01 07:47:52;;;;;;;0.20;0.20;;;;;;;6.19;83.60;97543.53;5035986;28;20029;-74
2021/12/01 07:50:17;;;;;;;0.52;0.30;;;;;;;6.23;83.97;97558.19;5024809;28;20025;-70
2021/12/01 07:52:43;;;;;;;0.60;0.40;;;;;;;6.23;83.89;97533.19;5053834;28;20025;-71
2021/12/01 07:55:08;;;;;;;1.92;0.47;;;;;;;6.27;83.90;97553.25;5039193;28;20056;-70
2021/12/01 07:57:34;;;;;;;0.98;0.47;;;;;;;6.29;83.72;97540.44;5017682;28;20050;-68
2021/12/01 07:59:59;;;;;;;1.17;0.43;;;;;;;6.31;83.52;97527.63;5006612;28;20029;-72
2021/12/01 08:02:25;;;;;;;1.38;0.38;;;;;;;6.36;83.38;97517.91;5013186;28;22846;-69
2021/12/01 08:04:50;;;;;;;0.68;0.40;;;;;;;6.30;83.16;97493.75;5005470;28;20041;-69
2021/12/01 08:07:15;;;;;;;0.85;0.38;;;;;;;6.46;82.94;97514.78;5004100;28;20505;-69
2021/12/01 08:09:41;;;;;;;1.23;0.68;;;;;;;6.48;82.50;97498.47;5002068;28;20037;-69
2021/12/01 08:12:10;;;;;;;2.35;0.50;;;;;;;6.46;82.41;97503.22;5007310;28;20034;-69
2021/12/01 08:14:36;;;;;;;1.88;0.50;;;;;;;6.52;81.95;97499.69;5005827;28;20030;-69
2021/12/01 08:17:01;;;;;;;2.42;0.30;;;;;;;6.56;81.71;97482.13;5007139;28;20029;-69
2021/12/01 08:19:27;;;;;;;2.13;0.70;;;;;;;6.61;81.35;97485.00;5007440;28;20030;-67
2021/12/01 08:21:52;;;;;;;0.35;0.30;;;;;;;6.58;81.29;97447.81;5005326;28;20033;-73
2021/12/01 08:24:19;;;;;;;0.90;0.32;;;;;;;6.63;81.37;97477.56;5010168;28;20189;-77
2021/12/01 08:26:45;;;;;;;1.60;0.50;;;;;;;6.57;82.04;97457.72;4996222;28;20452;-77
2021/12/01 08:29:12;;;;;;;0.50;0.30;;;;;;;6.62;81.71;97459.78;5017249;28;20029;-78
2021/12/01 08:31:37;;;;;;;1.30;0.40;;;;;;;6.65;82.26;97461.22;5016178;28;20025;-75
2021/12/01 08:34:02;;;;;;;3.80;0.60;;;;;;;6.66;81.99;97458.31;5014388;28;20721;-75
2021/12/01 08:36:28;;;;;;;1.92;0.50;;;;;;;6.67;81.80;97449.22;5002840;28;20058;-75
2021/12/01 08:38:53;;;;;;;0.73;0.47;;;;;;;6.61;81.47;97436.63;5010944;28;20025;-77
2021/12/01 08:41:19;;;;;;;2.78;0.40;;;;;;;6.72;82.06;97435.16;4999329;28;20018;-77
2021/12/01 08:43:44;;;;;;;0.60;0.38;;;;;;;6.71;82.09;97412.00;5016847;28;20030;-77
2021/12/01 08:46:10;;;;;;;0.20;0.20;;;;;;;6.79;80.99;97422.53;5014935;28;20022;-77
2021/12/01 08:48:36;;;;;;;1.75;0.40;;;;;;;6.85;80.79;97416.28;4997473;28;20518;-75
2021/12/01 08:51:03;;;;;;;1.80;0.40;;;;;;;6.90;80.75;97402.22;5006713;28;20025;-69
2021/12/01 08:53:30;;;;;;;1.08;0.30;;;;;;;7.04;81.10;97414.53;5014814;28;20030;-74
2021/12/01 08:55:57;;;;;;;1.42;0.40;;;;;;;7.07;80.88;97422.16;5015367;28;20018;-74
2021/12/01 08:58:23;;;;;;;2.20;0.85;;;;;;;7.06;81.56;97411.63;4997783;28;20026;-70
2021/12/01 09:00:48;;;;;;;1.77;0.90;;;;;;;7.07;81.46;97403.34;5000031;28;20028;-71
2021/12/01 09:03:16;;;;;;;1.10;0.47;;;;;;;7.15;81.53;97407.63;4999921;28;20026;-77
2021/12/01 09:05:43;;;;;;;0.80;0.38;;;;;;;7.24;80.96;97385.66;4999299;28;20025;-79
2021/12/01 09:08:08;;;;;;;1.02;0.50;;;;;;;7.35;80.79;97399.47;4998670;28;20104;-72
2021/12/01 09:10:35;;;;;;;0.70;0.10;;;;;;;7.33;79.68;97372.75;5007798;28;20045;-76
2021/12/01 09:13:01;;;;;;;0.40;0.20;;;;;;;7.45;79.92;97389.03;5015756;28;20018;-76
2021/12/01 09:15:27;;;;;;;2.65;0.50;;;;;;;7.47;79.93;97371.63;5012356;28;20092;-73
2021/12/01 09:17:53;;;;;;;0.95;0.30;;;;;;;7.50;79.83;97359.59;5014432;28;20022;-74
2021/12/01 09:20:18;;;;;;;0.60;0.20;;;;;;;7.60;79.70;97365.31;4996937;28;20033;-70
2021/12/01 09:22:44;;;;;;;0.30;0.20;;;;;;;7.51;79.80;97360.44;5014919;28;20033;-74
2021/12/01 09:25:10;;;;;;;0.50;0.28;;;;;;;7.59;80.39;97352.91;4998732;28;20033;-76
2021/12/01 09:27:36;;;;;;;0.00;0.00;;;;;;;7.76;80.25;97360.44;5012949;28;20030;-69
2021/12/01 09:30:03;;;;;;;0.25;0.20;;;;;;;7.64;79.76;97347.69;4992428;28;20092;-70
2021/12/01 09:32:28;;;;;;;0.50;0.15;;;;;;;7.79;79.16;97360.00;5004006;28;20387;-75
2021/12/01 09:34:53;;;;;;;0.38;0.20;;;;;;;7.83;78.46;97328.88;5022807;28;20056;-74
2021/12/01 09:37:19;;;;;;;0.35;0.10;;;;;;;7.88;79.27;97345.19;5014396;28;20108;-72
2021/12/01 09:39:44;;;;;;;3.13;0.20;;;;;;;7.87;78.68;97335.47;5017375;28;20088;-76
2021/12/01 09:42:11;;;;;;;1.13;0.32;;;;;;;7.94;78.53;97338.94;5008253;28;20018;-77
2021/12/01 09:44:38;;;;;;;0.47;0.20;;;;;;;7.94;78.93;97340.78;5015648;28;20029;-72
2021/12/01 09:47:05;;;;;;;0.35;0.20;;;;;;;7.92;78.42;97324.84;5016212;28;20029;-75
2021/12/01 09:49:31;;;;;;;1.17;0.20;;;;;;;7.87;78.85;97319.31;5009034;28;20026;-75
2021/12/01 09:51:57;;;;;;;1.00;0.20;;;;;;;7.90;78.41;97300.84;5025154;28;20045;-74
2021/12/01 09:54:23;;;;;;;0.70;0.30;;;;;;;8.00;77.89;97311.09;5014706;28;20490;-74
2021/12/01 09:56:48;;;;;;;0.93;0.35;;;;;;;8.14;78.39;97301.00;5011142;28;20030;-72
2021/12/01 09:59:14;;;;;;;0.28;0.10;;;;;;;8.09;78.05;97293.56;5015473;28;20042;-75
2021/12/01 10:01:39;;;;;;;0.52;0.32;;;;;;;8.14;78.29;97311.78;5012310;28;20026;-74
2021/12/01 10:04:05;;;;;;;0.45;0.30;;;;;;;8.07;77.37;97290.31;4991045;28;20099;-73
2021/12/01 10:06:32;;;;;;;1.02;0.43;;;;;;;8.17;78.03;97302.41;4991827;28;20064;-73
2021/12/01 10:09:03;;;;;;;1.58;0.55;;;;;;;8.16;77.43;97285.44;5018352;28;20032;-76
2021/12/01 10:11:32;;;;;;;1.63;0.40;;;;;;;8.26;76.39;97277.66;5015477;28;20041;-72
2021/12/01 10:14:10;;;;;;;0.95;0.40;;;;;;;8.24;76.57;97278.91;5010526;28;20056;-69
2021/12/01 10:16:41;;;;;;;0.55;0.20;;;;;;;8.34;76.53;97279.22;5014194;28;20022;-75
2021/12/01 10:19:09;;;;;;;1.77;0.28;;;;;;;8.25;76.38;97259.84;5013521;28;20510;-75
2021/12/01 10:21:36;;;;;;;1.95;0.45;;;;;;;8.36;76.76;97277.13;5012315;28;20037;-71
2021/12/01 10:24:08;;;;;;;1.02;0.17;;;;;;;8.25;76.64;97277.88;5014104;28;20034;-72
2021/12/01 10:26:45;;;;;;;0.98;0.30;;;;;;;8.23;76.97;97261.94;5011617;28;20046;-76
2021/12/01 10:29:14;;;;;;;2.05;0.50;;;;;;;8.11;77.50;97243.00;5055709;23;20041;-68
2021/12/01 10:31:43;;;;;;;0.55;0.28;;;;;;;8.19;77.34;97243.75;5032617;28;20022;-67
2021/12/01 10:34:16;;;;;;;0.25;0.20;;;;;;;8.18;76.90;97237.56;5032838;28;20398;-67
2021/12/01 10:36:43;;;;;;;0.50;0.20;;;;;;;8.06;76.89;97202.47;5031725;28;20063;-68
2021/12/01 10:39:08;;;;;;;0.30;0.10;;;;;;;8.30;76.34;97237.59;5019646;28;20033;-67
2021/12/01 10:41:38;;;;;;;0.40;0.22;;;;;;;8.23;76.93;97226.09;5030510;28;20033;-67
2021/12/01 10:44:15;;;;;;;0.55;0.20;;;;;;;8.27;77.00;97229.97;5005933;28;20128;-67
2021/12/01 10:46:52;;;;;;;0.47;0.20;;;;;;;8.26;77.07;97213.00;5030784;28;20112;-68
2021/12/01 10:49:32;;;;;;;2.05;0.10;;;;;;;8.34;76.90;97214.53;5031944;28;20044;-67
2021/12/01 10:51:59;;;;;;;0.32;0.20;;;;;;;8.34;77.68;97207.28;5031613;28;20132;-67
2021/12/01 10:54:26;;;;;;;0.40;0.20;;;;;;;8.32;76.58;97206.69;5029663;28;20136;-68
2021/12/01 10:57:18;;;;;;;0.13;0.10;;;;;;;8.39;77.22;97200.41;5027368;28;20700;-67
2021/12/01 10:59:46;;;;;;;0.63;0.20;;;;;;;8.41;77.36;97188.38;5019452;28;20030;-67
2021/12/01 11:02:12;;;;;;;0.52;0.25;;;;;;;8.43;77.27;97180.03;5026874;28;20055;-66
2021/12/01 11:04:43;;;;;;;0.63;0.20;;;;;;;8.26;77.22;97152.91;5027367;28;20622;-67
2021/12/01 11:07:32;;;;;;;1.42;0.10;;;;;;;8.25;77.44;97151.22;5017879;28;20026;-66
2021/12/01 11:10:18;;;;;;;;;;;;;;;8.42;77.75;97173.81;5019828;28;20028;-66
2021/12/01 11:12:46;;;;;;;2.10;0.40;;;;;;;8.41;77.87;97161.41;5026443;28;19964;-66
2021/12/01 11:15:20;;;;;;;0.23;0.20;;;;;;;8.41;77.65;97165.97;5024895;28;20043;-68
2021/12/01 11:17:47;;;;;;;0.35;0.22;;;;;;;8.42;77.53;97141.50;5025728;28;20308;-69
2021/12/01 11:20:31;;;;;;;0.43;0.20;;;;;;;8.43;77.93;97109.97;5025015;28;20033;-67
2021/12/01 11:23:07;;;;;;;0.43;0.20;;;;;;;8.39;78.91;97122.25;5023247;28;20083;-67
2021/12/01 11:25:35;;;;;;;0.20;0.13;;;;;;;8.34;80.60;97128.31;5023978;28;20052;-67
2021/12/01 11:28:01;;;;;;;1.02;0.25;;;;;;;8.27;80.94;97114.13;5029509;28;20032;-70
2021/12/01 11:30:27;;;;;;;0.63;0.20;;;;;;;8.22;82.32;97109.41;5010267;28;20038;-67
2021/12/01 11:32:53;;;;;;;0.10;0.10;;;;;;;8.04;81.10;97085.22;5018681;28;20079;-67
2021/12/01 11:35:18;;;;;;;2.90;0.50;;;;;;;8.10;81.81;97095.91;5021346;28;20032;-67
2021/12/01 11:37:44;;;;;;;0.70;0.10;;;;;;;8.22;82.77;97103.22;5021087;28;20072;-67
2021/12/01 11:40:10;;;;;;;0.98;0.13;;;;;;;8.11;82.89;97081.38;5013869;28;20045;-67
2021/12/01 11:42:36;;;;;;;0.30;0.20;;;;;;;8.12;82.45;97079.50;5010903;28;20103;-68